Time;durP1;ratioP1;P1;durP2;ratioP2;P2;SDS_P1;SDS_P2;PMS_P1;PMS_P2;Temp;Humidity;BMP_temperature;BMP_pressure;BME280_temperature;BME280_humidity;BME280_pressure;Samples;Min_cycle;Max_cycle;Signal;HPM_P1;HPM_P2
2022/03/07 00:02:08;;;;;;;2.20;0.70;;;19.80;28.60;;;;;;5088020;28;20139;-78
2022/03/07 00:04:34;;;;;;;1.75;0.82;;;19.90;28.60;;;;;;5087208;28;20088;-76
2022/03/07 00:07:00;;;;;;;2.10;0.60;;;20.00;28.50;;;;;;5087175;28;20604;-76
2022/03/07 00:09:26;;;;;;;1.60;0.82;;;20.00;28.40;;;;;;5088282;28;20033;-76
2022/03/07 00:11:52;;;;;;;1.08;0.70;;;20.10;28.40;;;;;;5086474;28;20055;-75
2022/03/07 00:14:18;;;;;;;1.30;0.98;;;20.10;28.40;;;;;;5074802;28;20119;-75
2022/03/07 00:16:44;;;;;;;1.30;0.50;;;20.20;28.30;;;;;;5074654;28;20036;-75
2022/03/07 00:19:12;;;;;;;1.20;0.60;;;20.20;28.20;;;;;;5073099;28;20047;-75
2022/03/07 00:21:38;;;;;;;1.05;0.57;;;20.30;28.20;;;;;;5073434;28;20041;-75
2022/03/07 00:24:06;;;;;;;1.63;0.57;;;20.30;28.20;;;;;;5073360;28;20123;-76
2022/03/07 00:26:32;;;;;;;2.53;0.77;;;20.40;28.10;;;;;;5073391;28;20051;-76
2022/03/07 00:28:57;;;;;;;0.95;0.50;;;20.40;28.00;;;;;;5072521;28;20047;-76
2022/03/07 00:31:23;;;;;;;1.27;0.60;;;20.40;28.00;;;;;;5072911;28;20111;-76
2022/03/07 00:33:50;;;;;;;1.33;0.70;;;20.50;28.00;;;;;;5073182;28;20044;-76
2022/03/07 00:36:17;;;;;;;1.77;0.60;;;20.50;27.90;;;;;;5073001;28;20044;-75
2022/03/07 00:38:42;;;;;;;1.20;0.50;;;20.50;27.90;;;;;;5072909;28;20480;-76
2022/03/07 00:41:09;;;;;;;1.25;0.50;;;20.60;27.80;;;;;;5072138;28;20102;-75
2022/03/07 00:43:35;;;;;;;1.60;0.68;;;20.60;27.80;;;;;;5072531;28;20039;-77
2022/03/07 00:46:01;;;;;;;1.52;0.70;;;20.60;27.80;;;;;;5072210;28;20040;-76
2022/03/07 00:48:27;;;;;;;1.77;1.15;;;20.60;27.70;;;;;;5072503;28;20044;-76
2022/03/07 00:50:53;;;;;;;1.20;0.60;;;20.70;27.70;;;;;;5072974;28;20036;-76
2022/03/07 00:53:21;;;;;;;1.05;0.57;;;20.70;27.70;;;;;;5072648;28;20086;-76
2022/03/07 00:55:52;;;;;;;1.85;0.60;;;20.80;27.70;;;;;;5072594;28;20032;-75
2022/03/07 00:58:17;;;;;;;;;;;20.80;27.60;;;;;;5073270;28;20041;-76
2022/03/07 01:00:44;;;;;;;1.25;0.50;;;20.80;27.70;;;;;;5072510;28;19923;-75
2022/03/07 01:03:12;;;;;;;1.15;0.30;;;20.80;27.60;;;;;;5071158;28;20137;-76
2022/03/07 01:05:39;;;;;;;1.65;0.47;;;20.80;27.60;;;;;;5072006;28;20044;-76
2022/03/07 01:08:05;;;;;;;1.35;0.60;;;20.70;27.60;;;;;;5072696;28;20391;-76
2022/03/07 01:10:31;;;;;;;0.95;0.55;;;20.70;27.70;;;;;;5072273;28;20047;-76
2022/03/07 01:12:57;;;;;;;1.05;0.47;;;20.60;27.70;;;;;;5071938;28;20043;-76
2022/03/07 01:15:23;;;;;;;1.33;0.50;;;20.60;27.80;;;;;;5072279;28;20500;-75
2022/03/07 01:17:49;;;;;;;1.83;0.43;;;20.60;27.70;;;;;;5072324;28;20094;-75
2022/03/07 01:20:15;;;;;;;1.25;0.50;;;20.60;27.70;;;;;;5073594;28;20040;-75
2022/03/07 01:22:42;;;;;;;1.15;0.40;;;20.60;27.60;;;;;;5072139;28;20370;-75
2022/03/07 01:25:08;;;;;;;0.95;0.40;;;20.70;27.60;;;;;;5072299;28;20042;-76
2022/03/07 01:27:34;;;;;;;1.45;0.55;;;20.80;27.50;;;;;;5072006;28;20041;-77
2022/03/07 01:30:00;;;;;;;1.17;0.40;;;20.80;27.50;;;;;;5071914;28;20039;-76
2022/03/07 01:32:25;;;;;;;0.90;0.30;;;20.90;27.50;;;;;;5072195;28;20056;-76
2022/03/07 01:34:51;;;;;;;1.45;0.40;;;20.90;27.50;;;;;;5072011;28;20044;-76
2022/03/07 01:37:17;;;;;;;1.02;0.60;;;20.90;27.40;;;;;;5071854;28;20041;-76
2022/03/07 01:39:46;;;;;;;2.17;0.43;;;21.00;27.40;;;;;;5072031;28;20040;-76
2022/03/07 01:42:11;;;;;;;0.82;0.40;;;21.00;27.30;;;;;;5071971;28;20082;-76
2022/03/07 01:44:37;;;;;;;0.80;0.50;;;21.10;27.30;;;;;;5073013;28;20075;-76
2022/03/07 01:47:05;;;;;;;1.10;0.40;;;21.10;27.20;;;;;;5071563;28;20100;-76
2022/03/07 01:49:31;;;;;;;0.80;0.32;;;21.10;27.20;;;;;;5071503;28;20040;-76
2022/03/07 01:51:57;;;;;;;1.40;0.57;;;21.20;27.10;;;;;;5071494;28;20040;-75
2022/03/07 01:54:23;;;;;;;0.70;0.40;;;21.30;27.10;;;;;;5071752;28;20098;-76
2022/03/07 01:56:51;;;;;;;1.05;0.38;;;21.30;27.00;;;;;;5071647;28;20399;-76
2022/03/07 01:59:20;;;;;;;1.55;0.40;;;21.30;27.00;;;;;;5071377;28;20079;-76
2022/03/07 02:01:45;;;;;;;1.20;0.30;;;21.30;27.00;;;;;;5071181;28;20106;-77
2022/03/07 02:04:11;;;;;;;1.85;0.50;;;21.30;26.90;;;;;;5071525;28;20048;-76
2022/03/07 02:06:38;;;;;;;0.60;0.30;;;21.40;26.90;;;;;;5072669;28;20458;-75
2022/03/07 02:09:05;;;;;;;0.70;0.30;;;21.40;26.90;;;;;;5071477;28;20078;-76
2022/03/07 02:11:32;;;;;;;1.08;0.40;;;21.40;26.80;;;;;;5071062;28;20484;-76
2022/03/07 02:13:58;;;;;;;0.90;0.22;;;21.40;26.80;;;;;;5071161;28;20043;-76
2022/03/07 02:16:23;;;;;;;0.60;0.20;;;21.50;26.80;;;;;;5071199;28;20036;-76
2022/03/07 02:18:52;;;;;;;1.13;0.30;;;21.50;26.80;;;;;;5070974;28;20036;-76
2022/03/07 02:21:18;;;;;;;0.88;0.40;;;21.50;26.80;;;;;;5070841;28;20576;-76
2022/03/07 02:23:47;;;;;;;0.50;0.30;;;21.50;26.70;;;;;;5071004;28;20040;-76
2022/03/07 02:26:17;;;;;;;0.95;0.30;;;21.50;26.70;;;;;;5071056;28;20028;-76
2022/03/07 02:28:44;;;;;;;0.82;0.30;;;21.60;26.60;;;;;;5070833;28;20072;-76
2022/03/07 02:31:10;;;;;;;1.00;0.32;;;21.60;26.60;;;;;;5072156;28;20097;-77
2022/03/07 02:33:36;;;;;;;0.47;0.22;;;21.60;26.60;;;;;;5070946;28;20033;-76
2022/03/07 02:36:05;;;;;;;0.80;0.35;;;21.70;26.60;;;;;;5070588;28;20391;-76
2022/03/07 02:38:31;;;;;;;1.25;0.22;;;21.70;26.60;;;;;;5071004;28;20051;-76
2022/03/07 02:40:56;;;;;;;0.90;0.30;;;21.70;26.50;;;;;;5072105;28;20037;-76
2022/03/07 02:43:22;;;;;;;0.90;0.30;;;21.70;26.50;;;;;;5070976;28;20040;-76
2022/03/07 02:45:48;;;;;;;1.67;0.30;;;21.70;26.50;;;;;;5071025;28;20145;-76
2022/03/07 02:48:13;;;;;;;0.70;0.30;;;21.70;26.40;;;;;;5071262;28;20519;-76
2022/03/07 02:50:39;;;;;;;1.73;0.35;;;21.70;26.40;;;;;;5071822;28;20396;-77
2022/03/07 02:53:06;;;;;;;0.85;0.25;;;21.80;26.40;;;;;;5070652;28;20052;-76
2022/03/07 02:55:34;;;;;;;1.73;0.28;;;21.80;26.40;;;;;;5071999;28;20076;-76
2022/03/07 02:58:06;;;;;;;0.50;0.20;;;21.80;26.40;;;;;;5070515;28;20052;-76
2022/03/07 03:00:32;;;;;;;0.70;0.20;;;21.80;26.30;;;;;;5070053;28;20480;-76
2022/03/07 03:03:01;;;;;;;1.40;0.30;;;21.80;26.30;;;;;;5069862;28;20059;-76
2022/03/07 03:05:26;;;;;;;0.55;0.30;;;21.80;26.30;;;;;;5070491;28;20093;-76
2022/03/07 03:07:52;;;;;;;0.47;0.22;;;21.80;26.20;;;;;;5071647;28;20041;-76
2022/03/07 03:10:19;;;;;;;0.57;0.30;;;21.90;26.90;;;;;;5071841;28;20107;-76
2022/03/07 03:12:46;;;;;;;2.42;0.30;;;21.90;26.20;;;;;;5070450;28;20094;-76
2022/03/07 03:15:13;;;;;;;0.60;0.20;;;21.90;26.20;;;;;;5071664;28;20075;-76
2022/03/07 03:17:40;;;;;;;1.95;0.30;;;22.00;26.20;;;;;;5070579;28;20437;-76
2022/03/07 03:20:11;;;;;;;1.33;0.30;;;22.00;26.20;;;;;;5070365;28;20044;-75
2022/03/07 03:22:37;;;;;;;1.00;0.20;;;22.00;26.10;;;;;;5070291;28;20055;-76
2022/03/07 03:25:05;;;;;;;0.52;0.20;;;22.10;26.10;;;;;;5070490;28;20503;-77
2022/03/07 03:27:30;;;;;;;1.17;0.20;;;22.20;26.00;;;;;;5069383;28;20040;-77
2022/03/07 03:29:56;;;;;;;0.50;0.20;;;22.30;25.90;;;;;;5070347;28;20082;-77
2022/03/07 03:32:22;;;;;;;0.93;0.20;;;22.40;25.80;;;;;;5070385;28;20049;-76
2022/03/07 03:34:48;;;;;;;0.50;0.20;;;22.50;25.70;;;;;;5070367;28;20043;-76
2022/03/07 03:37:13;;;;;;;0.43;0.20;;;22.70;26.20;;;;;;5070508;28;20460;-76
2022/03/07 03:39:39;;;;;;;0.70;0.20;;;22.70;25.50;;;;;;5070380;28;20036;-76
2022/03/07 03:42:05;;;;;;;0.50;0.38;;;22.80;25.40;;;;;;5070053;28;20484;-76
2022/03/07 03:44:31;;;;;;;1.02;0.30;;;23.00;25.40;;;;;;5069483;28;20079;-76
2022/03/07 03:46:56;;;;;;;0.98;0.20;;;23.00;25.30;;;;;;5070070;28;20036;-77
2022/03/07 03:49:22;;;;;;;0.90;0.20;;;23.10;25.30;;;;;;5073899;28;20041;-76
2022/03/07 03:51:47;;;;;;;1.00;0.30;;;23.20;25.20;;;;;;5073899;28;20084;-76
2022/03/07 03:54:13;;;;;;;0.75;0.40;;;23.20;25.10;;;;;;5073769;28;20076;-77
2022/03/07 03:56:40;;;;;;;0.85;0.30;;;23.30;25.00;;;;;;5073965;28;20135;-77
2022/03/07 03:59:06;;;;;;;0.50;0.20;;;23.40;25.00;;;;;;5073697;28;20116;-76
2022/03/07 04:01:32;;;;;;;0.68;0.20;;;23.40;24.90;;;;;;5073567;28;20131;-77
2022/03/07 04:03:57;;;;;;;0.55;0.15;;;23.50;24.90;;;;;;5073307;28;20060;-76
2022/03/07 04:06:23;;;;;;;0.80;0.20;;;23.50;24.80;;;;;;5073422;28;20036;-76
2022/03/07 04:08:50;;;;;;;0.40;0.20;;;23.50;24.80;;;;;;5073739;28;20101;-76
2022/03/07 04:11:16;;;;;;;0.65;0.20;;;23.60;24.80;;;;;;5074779;28;20043;-76
2022/03/07 04:13:45;;;;;;;0.50;0.20;;;23.60;24.70;;;;;;5073815;28;20110;-76
2022/03/07 04:16:10;;;;;;;0.55;0.20;;;23.60;24.70;;;;;;5073577;28;20041;-76
2022/03/07 04:18:36;;;;;;;0.60;0.25;;;23.70;24.70;;;;;;5073287;28;20091;-76
2022/03/07 04:21:02;;;;;;;0.35;0.20;;;23.70;24.60;;;;;;5074602;28;20131;-76
2022/03/07 04:23:28;;;;;;;0.70;0.20;;;23.70;24.60;;;;;;5073298;28;20086;-76
2022/03/07 04:25:53;;;;;;;0.68;0.25;;;23.80;24.60;;;;;;5072537;28;20076;-76
2022/03/07 04:28:19;;;;;;;0.65;0.20;;;23.80;24.60;;;;;;5072629;28;20055;-77
2022/03/07 04:30:44;;;;;;;0.75;0.20;;;23.80;24.50;;;;;;5073053;28;20068;-76
2022/03/07 04:33:13;;;;;;;0.52;0.20;;;23.80;24.50;;;;;;5073102;28;20047;-78
2022/03/07 04:35:39;;;;;;;0.80;0.30;;;23.90;24.50;;;;;;5073227;28;20037;-76
2022/03/07 04:38:05;;;;;;;0.50;0.20;;;23.90;24.50;;;;;;5074460;28;20408;-77
2022/03/07 04:40:30;;;;;;;0.50;0.30;;;23.90;24.50;;;;;;5071642;28;20392;-77
2022/03/07 04:43:01;;;;;;;0.80;0.20;;;23.90;24.50;;;;;;5072563;28;20044;-76
2022/03/07 04:45:27;;;;;;;0.75;0.28;;;23.90;24.40;;;;;;5072548;28;20358;-75
2022/03/07 04:47:52;;;;;;;0.80;0.30;;;23.90;24.40;;;;;;5073641;28;20036;-77
2022/03/07 04:50:18;;;;;;;0.60;0.20;;;23.90;24.40;;;;;;5073064;28;20422;-76
2022/03/07 04:52:44;;;;;;;0.43;0.20;;;23.90;24.40;;;;;;5072675;28;20456;-78
2022/03/07 04:55:13;;;;;;;0.73;0.22;;;23.90;24.40;;;;;;5072668;28;20044;-77
2022/03/07 04:57:39;;;;;;;1.73;0.30;;;23.90;24.40;;;;;;5072760;28;20084;-77
2022/03/07 05:00:08;;;;;;;0.95;0.20;;;24.00;24.40;;;;;;5072385;28;20477;-75
2022/03/07 05:02:34;;;;;;;0.55;0.20;;;24.00;24.40;;;;;;5073257;28;20496;-76
2022/03/07 05:04:59;;;;;;;0.30;0.10;;;24.00;24.40;;;;;;5072732;28;20101;-76
2022/03/07 05:07:25;;;;;;;1.65;0.30;;;24.00;24.40;;;;;;5073861;28;20498;-77
2022/03/07 05:09:50;;;;;;;0.40;0.13;;;24.00;24.40;;;;;;5073679;28;20040;-75
2022/03/07 05:12:16;;;;;;;0.30;0.25;;;24.00;24.40;;;;;;5072344;28;20114;-77
2022/03/07 05:14:42;;;;;;;0.40;0.20;;;24.00;24.40;;;;;;5071587;28;20117;-75
2022/03/07 05:17:08;;;;;;;0.38;0.10;;;24.00;24.30;;;;;;5073494;28;20043;-76
2022/03/07 05:19:36;;;;;;;0.75;0.20;;;24.00;24.30;;;;;;5072430;28;20070;-76
2022/03/07 05:22:02;;;;;;;0.63;0.10;;;24.00;24.30;;;;;;5072116;28;20048;-77
2022/03/07 05:24:28;;;;;;;0.85;0.50;;;24.00;24.40;;;;;;5072023;28;20056;-75
2022/03/07 05:26:54;;;;;;;0.35;0.20;;;24.00;24.30;;;;;;5070811;28;20110;-77
2022/03/07 05:29:22;;;;;;;0.40;0.10;;;24.00;24.30;;;;;;5071315;28;20041;-75
2022/03/07 05:31:48;;;;;;;0.85;0.20;;;24.00;24.30;;;;;;5071532;28;20045;-76
2022/03/07 05:34:14;;;;;;;0.45;0.20;;;24.00;24.30;;;;;;5071583;28;20044;-75
2022/03/07 05:36:39;;;;;;;0.55;0.13;;;24.00;24.30;;;;;;5073378;28;20036;-76
2022/03/07 05:39:05;;;;;;;0.70;0.20;;;24.00;24.30;;;;;;5073009;28;20047;-77
2022/03/07 05:41:31;;;;;;;1.02;0.17;;;24.10;24.30;;;;;;5071654;28;20131;-77
2022/03/07 05:43:59;;;;;;;0.60;0.40;;;24.10;24.30;;;;;;5071017;28;20036;-76
2022/03/07 05:46:25;;;;;;;1.02;0.20;;;24.00;24.30;;;;;;5071222;28;20048;-76
2022/03/07 05:48:50;;;;;;;0.77;0.20;;;24.00;24.30;;;;;;5071792;28;20128;-76
2022/03/07 05:51:22;;;;;;;0.77;0.30;;;24.00;24.40;;;;;;5072873;28;20024;-77
2022/03/07 05:53:48;;;;;;;1.00;0.30;;;24.00;24.40;;;;;;5071710;28;20067;-75
2022/03/07 05:56:17;;;;;;;1.02;0.20;;;24.00;24.40;;;;;;5071739;28;20472;-76
2022/03/07 05:58:43;;;;;;;0.98;0.20;;;24.00;24.30;;;;;;5071632;28;20387;-76
2022/03/07 06:01:09;;;;;;;0.77;0.20;;;24.00;24.30;;;;;;5071258;28;20132;-76
2022/03/07 06:03:34;;;;;;;0.60;0.20;;;24.00;24.30;;;;;;5070974;28;20057;-76
2022/03/07 06:06:03;;;;;;;0.77;0.40;;;24.00;24.30;;;;;;5072556;28;20045;-76
2022/03/07 06:08:28;;;;;;;0.68;0.20;;;24.00;24.30;;;;;;5071269;28;20033;-75
2022/03/07 06:10:54;;;;;;;0.98;0.20;;;24.00;24.30;;;;;;5070584;28;20044;-76
2022/03/07 06:13:19;;;;;;;0.77;0.30;;;24.10;24.30;;;;;;5070889;28;20037;-75
2022/03/07 06:15:45;;;;;;;1.67;0.20;;;24.00;24.30;;;;;;5070266;28;20082;-73
2022/03/07 06:18:12;;;;;;;2.33;0.25;;;24.00;25.20;;;;;;5068663;28;20049;-74
2022/03/07 06:20:38;;;;;;;2.22;0.20;;;23.90;26.00;;;;;;5069776;28;20044;-74
2022/03/07 06:23:04;;;;;;;2.72;0.30;;;23.70;26.20;;;;;;5069133;28;20040;-77
2022/03/07 06:25:33;;;;;;;0.60;0.20;;;23.50;26.50;;;;;;5070868;28;20066;-74
2022/03/07 06:28:00;;;;;;;2.38;0.20;;;23.40;26.80;;;;;;5072230;28;20072;-78
2022/03/07 06:30:28;;;;;;;1.55;0.22;;;23.30;27.00;;;;;;5070724;28;20048;-74
2022/03/07 06:32:54;;;;;;;1.20;0.40;;;23.10;27.30;;;;;;5072131;28;20089;-74
2022/03/07 06:35:20;;;;;;;0.55;0.20;;;23.10;27.60;;;;;;5070173;28;20241;-76
2022/03/07 06:37:51;;;;;;;0.93;0.25;;;23.00;27.80;;;;;;5071938;28;20036;-74
2022/03/07 06:40:21;;;;;;;2.90;0.30;;;22.80;27.90;;;;;;5069967;28;20066;-76
2022/03/07 06:42:48;;;;;;;2.95;0.30;;;22.80;27.90;;;;;;5070423;28;20044;-75
2022/03/07 06:45:15;;;;;;;3.90;0.28;;;22.80;27.70;;;;;;5058112;28;20047;-73
2022/03/07 06:47:42;;;;;;;1.45;0.30;;;22.90;27.60;;;;;;5057700;28;20044;-71
2022/03/07 06:50:12;;;;;;;0.60;0.20;;;23.00;27.70;;;;;;5060212;28;20519;-71
2022/03/07 06:52:40;;;;;;;0.93;0.38;;;23.00;27.90;;;;;;5086862;28;20496;-72
2022/03/07 06:55:07;;;;;;;1.35;0.20;;;22.90;28.00;;;;;;5070667;28;20049;-71
2022/03/07 06:57:32;;;;;;;2.50;0.38;;;22.80;28.10;;;;;;5071050;28;20079;-70
2022/03/07 07:00:03;;;;;;;5.88;1.05;;;22.60;28.10;;;;;;5068398;28;20500;-71
2022/03/07 07:02:28;;;;;;;;;;;22.40;28.40;;;;;;5055659;28;20056;-72
2022/03/07 07:04:54;;;;;;;4.50;0.60;;;22.20;28.40;;;;;;5077984;28;20016;-71
2022/03/07 07:07:20;;;;;;;3.75;0.47;;;22.00;28.70;;;;;;5058561;28;20612;-71
2022/03/07 07:09:46;;;;;;;2.08;0.40;;;21.80;29.00;;;;;;5047946;28;20036;-72
2022/03/07 07:12:12;;;;;;;3.30;0.40;;;21.60;29.10;;;;;;5054547;28;20092;-76
2022/03/07 07:14:37;;;;;;;3.63;0.50;;;21.40;29.40;;;;;;5053866;28;20048;-75
2022/03/07 07:17:03;;;;;;;3.92;0.80;;;21.30;29.50;;;;;;5046985;28;20044;-75
2022/03/07 07:19:30;;;;;;;3.42;0.50;;;21.10;29.50;;;;;;5036840;28;20041;-77
2022/03/07 07:21:55;;;;;;;2.28;0.70;;;21.00;29.50;;;;;;5067772;28;20122;-77
2022/03/07 07:24:21;;;;;;;2.83;0.60;;;20.90;29.40;;;;;;5066175;28;20570;-76
2022/03/07 07:26:46;;;;;;;4.72;0.90;;;20.80;29.40;;;;;;5064751;28;20119;-75
2022/03/07 07:29:12;;;;;;;4.25;0.60;;;20.70;29.30;;;;;;5070324;28;20548;-71
2022/03/07 07:31:38;;;;;;;2.05;0.60;;;20.60;29.40;;;;;;5063349;28;20095;-76
2022/03/07 07:34:03;;;;;;;1.48;0.60;;;20.50;29.60;;;;;;5065480;28;20043;-76
2022/03/07 07:36:29;;;;;;;3.40;0.57;;;20.40;29.70;;;;;;5051661;28;20546;-76
2022/03/07 07:38:55;;;;;;;3.10;0.68;;;20.20;29.80;;;;;;5053848;28;20032;-76
2022/03/07 07:41:21;;;;;;;2.47;0.60;;;20.10;30.50;;;;;;5068462;28;20050;-74
2022/03/07 07:43:49;;;;;;;3.10;0.55;;;20.00;30.00;;;;;;5049927;28;20169;-74
2022/03/07 07:46:15;;;;;;;5.85;0.90;;;19.80;30.10;;;;;;5038613;28;20134;-76
2022/03/07 07:48:40;;;;;;;2.90;1.00;;;19.60;30.30;;;;;;5053587;28;20044;-76
2022/03/07 07:51:06;;;;;;;6.53;1.45;;;19.40;30.50;;;;;;5054848;28;20044;-76
2022/03/07 07:53:32;;;;;;;2.67;1.38;;;19.20;30.80;;;;;;5069999;28;20539;-76
2022/03/07 07:55:58;;;;;;;3.50;1.30;;;19.00;30.80;;;;;;5058676;28;20072;-77
2022/03/07 07:58:23;;;;;;;4.68;1.20;;;18.90;31.00;;;;;;5054915;28;20718;-75
2022/03/07 08:00:49;;;;;;;2.00;0.82;;;18.90;31.20;;;;;;5034416;28;20085;-79
2022/03/07 08:03:15;;;;;;;2.97;1.00;;;18.90;31.20;;;;;;5050216;28;20057;-78
2022/03/07 08:05:41;;;;;;;3.88;0.73;;;19.00;31.10;;;;;;5064963;28;20044;-77
2022/03/07 08:08:06;;;;;;;4.00;1.27;;;19.20;30.90;;;;;;5048969;28;20511;-77
2022/03/07 08:10:32;;;;;;;2.47;0.70;;;19.40;30.60;;;;;;5053046;28;20703;-78
2022/03/07 08:12:58;;;;;;;4.82;0.88;;;19.60;30.30;;;;;;5055929;28;20048;-77
2022/03/07 08:15:24;;;;;;;4.10;0.60;;;19.70;30.00;;;;;;5054163;28;20114;-76
2022/03/07 08:17:50;;;;;;;3.22;0.70;;;19.90;29.80;;;;;;5061721;28;20068;-72
2022/03/07 08:20:18;;;;;;;4.47;1.02;;;20.00;29.60;;;;;;5045923;28;20412;-77
2022/03/07 08:22:44;;;;;;;4.70;1.33;;;20.10;29.40;;;;;;5048920;28;20041;-76
2022/03/07 08:25:10;;;;;;;4.13;1.17;;;20.20;29.30;;;;;;5051856;28;20113;-73
2022/03/07 08:27:36;;;;;;;2.30;0.82;;;20.30;29.30;;;;;;5046038;28;20058;-75
2022/03/07 08:30:04;;;;;;;3.42;0.73;;;20.40;29.30;;;;;;5047768;28;20048;-75
2022/03/07 08:32:30;;;;;;;4.72;0.88;;;20.40;29.20;;;;;;5043839;28;20623;-75
2022/03/07 08:34:57;;;;;;;4.57;1.05;;;20.30;29.20;;;;;;5047059;28;20091;-78
2022/03/07 08:37:22;;;;;;;1.55;0.85;;;20.30;29.30;;;;;;5049995;28;20123;-73
2022/03/07 08:39:48;;;;;;;2.42;0.90;;;20.30;29.40;;;;;;5043824;28;20120;-78
2022/03/07 08:42:14;;;;;;;3.05;1.08;;;20.20;29.40;;;;;;5051800;28;20040;-77
2022/03/07 08:44:39;;;;;;;2.05;1.38;;;20.20;29.60;;;;;;5056135;28;20037;-74
2022/03/07 08:47:05;;;;;;;3.97;0.98;;;20.10;29.70;;;;;;5050705;28;20040;-76
2022/03/07 08:49:34;;;;;;;1.75;0.85;;;20.00;29.80;;;;;;5053908;28;20102;-78
2022/03/07 08:51:59;;;;;;;2.70;0.60;;;19.90;29.90;;;;;;5048227;28;20033;-76
2022/03/07 08:54:25;;;;;;;2.88;0.70;;;19.80;30.00;;;;;;5052691;28;20045;-74
2022/03/07 08:56:50;;;;;;;2.22;0.50;;;19.80;30.00;;;;;;5057945;28;20499;-76
2022/03/07 08:59:16;;;;;;;1.92;0.55;;;19.70;30.20;;;;;;5053603;28;20041;-79
2022/03/07 09:01:42;;;;;;;3.38;0.73;;;19.60;30.30;;;;;;5052623;28;20036;-80
2022/03/07 09:04:07;;;;;;;2.42;0.65;;;19.50;30.40;;;;;;5049974;28;20403;-75
2022/03/07 09:06:36;;;;;;;4.00;0.77;;;19.40;30.60;;;;;;5056077;28;20043;-78
2022/03/07 09:09:02;;;;;;;3.40;0.77;;;19.40;30.70;;;;;;5054839;28;20032;-75
2022/03/07 09:11:27;;;;;;;2.55;0.60;;;19.30;30.70;;;;;;5051081;28;20086;-72
2022/03/07 09:13:53;;;;;;;1.35;0.52;;;19.30;30.90;;;;;;5044290;28;20036;-77
2022/03/07 09:16:19;;;;;;;5.13;0.43;;;19.20;31.10;;;;;;5062693;28;20672;-77
2022/03/07 09:18:45;;;;;;;2.25;0.77;;;19.20;31.40;;;;;;5048171;28;20128;-77
2022/03/07 09:21:10;;;;;;;2.03;0.40;;;19.10;31.50;;;;;;5044112;28;20083;-77
2022/03/07 09:23:38;;;;;;;3.45;0.70;;;19.10;31.60;;;;;;5045314;28;20293;-77
2022/03/07 09:26:05;;;;;;;1.13;0.40;;;19.10;31.60;;;;;;5049427;28;20032;-77
2022/03/07 09:28:31;;;;;;;3.33;1.45;;;19.10;31.60;;;;;;5050601;28;20094;-74
2022/03/07 09:30:57;;;;;;;2.60;0.50;;;19.10;31.50;;;;;;5054681;28;20032;-77
2022/03/07 09:33:24;;;;;;;2.13;0.45;;;19.20;31.50;;;;;;5050532;28;20033;-76
2022/03/07 09:35:53;;;;;;;2.58;0.60;;;19.20;32.10;;;;;;5052492;28;20048;-77
2022/03/07 09:38:18;;;;;;;3.75;0.70;;;19.30;31.40;;;;;;5063195;28;20077;-77
2022/03/07 09:40:45;;;;;;;1.75;0.75;;;19.30;31.80;;;;;;5053816;28;20036;-77
2022/03/07 09:43:13;;;;;;;3.17;0.60;;;19.30;31.90;;;;;;5057918;28;20047;-77
2022/03/07 09:45:40;;;;;;;2.13;0.50;;;19.20;32.00;;;;;;5064525;28;20040;-77
2022/03/07 09:48:06;;;;;;;3.35;0.57;;;19.20;32.10;;;;;;5050071;28;20067;-75
2022/03/07 09:50:31;;;;;;;2.80;0.60;;;19.20;32.20;;;;;;5053284;28;20420;-77
2022/03/07 09:52:57;;;;;;;4.25;0.50;;;19.20;32.50;;;;;;5042656;28;20039;-72
2022/03/07 09:55:24;;;;;;;6.88;0.40;;;19.20;32.70;;;;;;5048527;28;20049;-72
2022/03/07 09:57:53;;;;;;;3.17;0.25;;;19.30;33.50;;;;;;5053976;28;20545;-73
2022/03/07 10:00:19;;;;;;;3.53;0.40;;;19.40;32.60;;;;;;5065208;28;20044;-72
2022/03/07 10:03:05;;;;;;;4.28;0.30;;;19.50;32.50;;;;;;5050510;28;20102;-80
2022/03/07 10:05:38;;;;;;;4.40;0.30;;;19.60;32.50;;;;;;5051781;28;20049;-77
2022/03/07 10:08:05;;;;;;;2.60;0.40;;;19.70;32.50;;;;;;5052178;28;20056;-75
2022/03/07 10:10:35;;;;;;;3.95;0.20;;;19.70;32.40;;;;;;5067688;28;20048;-74
2022/03/07 10:13:06;;;;;;;2.97;0.20;;;19.80;32.40;;;;;;5052895;28;20051;-73
2022/03/07 10:15:32;;;;;;;3.63;0.20;;;19.90;32.30;;;;;;5043429;28;20128;-72
2022/03/07 10:17:58;;;;;;;1.15;0.20;;;19.90;32.10;;;;;;5054481;28;20040;-71
2022/03/07 10:20:25;;;;;;;2.42;0.20;;;19.90;31.90;;;;;;5068579;28;20044;-73
2022/03/07 10:22:55;;;;;;;2.55;0.30;;;19.90;31.80;;;;;;5048859;28;20067;-73
2022/03/07 10:25:24;;;;;;;1.77;0.22;;;20.00;31.80;;;;;;5054007;28;20040;-70
2022/03/07 10:27:50;;;;;;;1.65;0.20;;;20.00;31.70;;;;;;5050020;28;20079;-72
2022/03/07 10:30:20;;;;;;;0.82;0.20;;;20.00;31.60;;;;;;5064914;28;20044;-70
2022/03/07 10:33:08;;;;;;;4.15;0.20;;;20.00;31.60;;;;;;5048741;28;20594;-72
2022/03/07 10:35:36;;;;;;;0.90;0.32;;;20.00;31.50;;;;;;5043846;28;20048;-73
2022/03/07 10:38:05;;;;;;;1.05;0.20;;;20.00;31.30;;;;;;5051517;28;20044;-74
2022/03/07 10:40:32;;;;;;;2.08;0.13;;;20.00;31.20;;;;;;5066552;28;20073;-72
2022/03/07 10:43:00;;;;;;;3.08;0.20;;;20.00;31.10;;;;;;5054597;28;20131;-76
2022/03/07 10:45:28;;;;;;;1.17;0.17;;;20.00;31.00;;;;;;5053388;28;20071;-71
2022/03/07 10:47:55;;;;;;;1.30;0.20;;;20.00;31.00;;;;;;5054159;28;20099;-71
2022/03/07 10:50:23;;;;;;;0.50;0.10;;;20.00;31.00;;;;;;5050594;28;20048;-74
2022/03/07 10:52:51;;;;;;;1.17;0.30;;;19.90;31.00;;;;;;5051141;28;20048;-77
2022/03/07 10:55:24;;;;;;;5.13;0.52;;;19.90;31.20;;;;;;5055130;28;20067;-70
2022/03/07 10:57:50;;;;;;;6.88;0.63;;;19.90;31.60;;;;;;5051523;28;20052;-70
2022/03/07 11:00:18;;;;;;;1.73;0.20;;;19.90;32.00;;;;;;5051093;28;20037;-71
2022/03/07 11:02:49;;;;;;;3.78;0.30;;;19.90;32.20;;;;;;5052821;28;20152;-72
2022/03/07 11:05:17;;;;;;;2.47;0.20;;;20.00;32.20;;;;;;5054344;28;20044;-72
2022/03/07 11:07:45;;;;;;;3.08;0.20;;;20.10;32.00;;;;;;5065333;28;20044;-71
2022/03/07 11:10:15;;;;;;;5.25;0.20;;;20.10;31.80;;;;;;5052300;28;20271;-71
2022/03/07 11:12:42;;;;;;;7.47;0.43;;;20.20;31.60;;;;;;5051148;28;20388;-72
2022/03/07 11:15:09;;;;;;;1.13;0.13;;;20.20;31.50;;;;;;5066887;28;20655;-71
2022/03/07 11:17:39;;;;;;;1.67;0.20;;;20.20;31.30;;;;;;5054994;28;20756;-70
2022/03/07 11:20:06;;;;;;;1.10;0.30;;;20.30;31.30;;;;;;5069489;28;20041;-69
2022/03/07 11:22:33;;;;;;;2.60;0.20;;;20.30;31.10;;;;;;5050524;28;20052;-71
2022/03/07 11:24:59;;;;;;;1.48;0.10;;;20.30;31.20;;;;;;5058025;28;20045;-71
2022/03/07 11:27:25;;;;;;;1.50;0.10;;;20.30;31.30;;;;;;5055061;28;20047;-71
2022/03/07 11:29:50;;;;;;;3.03;0.20;;;20.30;31.30;;;;;;5049586;28;20044;-70
2022/03/07 11:32:18;;;;;;;0.40;0.10;;;20.30;31.30;;;;;;5049860;28;20041;-71
2022/03/07 11:34:59;;;;;;;0.90;0.20;;;20.20;31.10;;;;;;5051515;28;20392;-71
2022/03/07 11:37:31;;;;;;;0.70;0.35;;;20.30;31.10;;;;;;5055720;28;20033;-71
2022/03/07 11:39:58;;;;;;;1.08;0.10;;;20.30;31.10;;;;;;5051180;28;20636;-71
2022/03/07 11:42:39;;;;;;;0.60;0.20;;;20.20;31.00;;;;;;5051815;28;20041;-70
2022/03/07 11:45:10;;;;;;;0.95;0.20;;;20.20;31.00;;;;;;5067373;28;20072;-69
2022/03/07 11:47:39;;;;;;;0.52;0.10;;;20.10;30.90;;;;;;5050887;28;20495;-71
2022/03/07 11:50:06;;;;;;;1.48;0.10;;;20.20;30.90;;;;;;5054186;28;20044;-71
2022/03/07 11:52:32;;;;;;;1.88;0.10;;;20.10;30.80;;;;;;5050711;28;20044;-70
2022/03/07 11:55:01;;;;;;;1.50;0.10;;;20.10;30.90;;;;;;5066998;28;20040;-70
2022/03/07 11:58:05;;;;;;;1.35;0.10;;;20.10;30.90;;;;;;5049838;28;20049;-69
2022/03/07 12:00:34;;;;;;;1.42;0.10;;;20.10;30.90;;;;;;5050636;28;20119;-70
2022/03/07 12:03:10;;;;;;;1.55;0.10;;;20.10;30.90;;;;;;5047300;28;20045;-70
2022/03/07 12:05:36;;;;;;;3.58;0.45;;;20.10;30.90;;;;;;5049160;28;20036;-70
2022/03/07 12:11:02;;;;;;;1.92;0.10;;;20.10;30.70;;;;;;5071374;27;20438;-71
2022/03/07 12:13:29;;;;;;;1.00;0.30;;;20.10;30.60;;;;;;5078961;28;20052;-70
2022/03/07 12:15:59;;;;;;;1.13;0.10;;;20.20;30.60;;;;;;5058689;28;20049;-70
2022/03/07 12:18:26;;;;;;;0.40;0.10;;;20.30;30.50;;;;;;5074864;28;20063;-81
2022/03/07 12:21:01;;;;;;;1.60;0.10;;;20.30;30.30;;;;;;5060327;28;20083;-70
2022/03/07 12:23:29;;;;;;;1.42;0.10;;;20.40;30.30;;;;;;5062281;28;20063;-67
2022/03/07 12:28:40;;;;;;;2.55;0.10;;;20.50;30.40;;;;;;5110741;27;20409;-67
2022/03/07 12:31:06;;;;;;;3.20;0.52;;;20.60;30.60;;;;;;5109469;27;20054;-68
2022/03/07 12:33:32;;;;;;;2.47;0.45;;;20.60;30.60;;;;;;5109055;27;20483;-67
2022/03/07 12:36:04;;;;;;;2.42;0.30;;;20.60;30.60;;;;;;5097047;27;20065;-68
2022/03/07 12:38:31;;;;;;;1.80;0.20;;;20.60;30.60;;;;;;5126741;27;20490;-69
2022/03/07 12:40:59;;;;;;;0.68;0.20;;;20.60;30.60;;;;;;5119298;27;20050;-71
2022/03/07 12:43:26;;;;;;;3.80;0.20;;;20.60;30.60;;;;;;5108947;27;20036;-70
2022/03/07 12:45:56;;;;;;;4.13;0.32;;;20.50;30.60;;;;;;5113675;27;20044;-73
2022/03/07 12:48:39;;;;;;;1.27;0.10;;;20.60;30.50;;;;;;5094518;28;20052;-70
2022/03/07 12:51:07;;;;;;;2.15;0.17;;;20.60;30.50;;;;;;5107038;27;20035;-69
2022/03/07 12:53:35;;;;;;;1.50;0.10;;;20.70;30.40;;;;;;5109246;27;20040;-70